sensor_id;sensor_type;location;lat;lon;timestamp;P1;durP1;ratioP1;P2;durP2;ratioP2
13753;SDS011;6948;51.216;6.778;2022-09-12T00:00:41;37.10;;;28.90;;
13753;SDS011;6948;51.216;6.778;2022-09-12T00:03:07;32.13;;;28.03;;
13753;SDS011;6948;51.216;6.778;2022-09-12T00:05:39;36.43;;;30.03;;
13753;SDS011;6948;51.216;6.778;2022-09-12T00:08:05;37.80;;;30.17;;
13753;SDS011;6948;51.216;6.778;2022-09-12T00:10:31;35.87;;;29.03;;
13753;SDS011;6948;51.216;6.778;2022-09-12T00:12:57;34.17;;;28.20;;
13753;SDS011;6948;51.216;6.778;2022-09-12T00:15:23;35.47;;;29.53;;
13753;SDS011;6948;51.216;6.778;2022-09-12T00:17:49;34.60;;;29.67;;
13753;SDS011;6948;51.216;6.778;2022-09-12T00:20:18;34.87;;;28.83;;
13753;SDS011;6948;51.216;6.778;2022-09-12T00:22:44;34.00;;;28.23;;
13753;SDS011;6948;51.216;6.778;2022-09-12T00:25:10;32.93;;;27.27;;
13753;SDS011;6948;51.216;6.778;2022-09-12T00:27:36;35.60;;;28.30;;
13753;SDS011;6948;51.216;6.778;2022-09-12T00:30:03;35.23;;;28.83;;
13753;SDS011;6948;51.216;6.778;2022-09-12T00:32:29;35.90;;;28.10;;
13753;SDS011;6948;51.216;6.778;2022-09-12T00:34:55;36.13;;;28.57;;
13753;SDS011;6948;51.216;6.778;2022-09-12T00:37:21;35.37;;;28.40;;
13753;SDS011;6948;51.216;6.778;2022-09-12T00:39:47;35.80;;;28.17;;
13753;SDS011;6948;51.216;6.778;2022-09-12T00:42:17;33.77;;;27.77;;
13753;SDS011;6948;51.216;6.778;2022-09-12T00:44:44;37.90;;;28.23;;
13753;SDS011;6948;51.216;6.778;2022-09-12T00:47:13;37.40;;;29.13;;
13753;SDS011;6948;51.216;6.778;2022-09-12T00:49:44;39.43;;;28.80;;
13753;SDS011;6948;51.216;6.778;2022-09-12T00:52:14;34.30;;;28.77;;
13753;SDS011;6948;51.216;6.778;2022-09-12T00:54:42;35.00;;;28.33;;
13753;SDS011;6948;51.216;6.778;2022-09-12T00:57:10;33.50;;;27.17;;
13753;SDS011;6948;51.216;6.778;2022-09-12T00:59:47;34.23;;;27.10;;
13753;SDS011;6948;51.216;6.778;2022-09-12T01:02:15;36.10;;;27.80;;
13753;SDS011;6948;51.216;6.778;2022-09-12T01:04:44;34.70;;;28.47;;
13753;SDS011;6948;51.216;6.778;2022-09-12T01:07:13;33.77;;;27.40;;
13753;SDS011;6948;51.216;6.778;2022-09-12T01:09:40;35.47;;;28.30;;
13753;SDS011;6948;51.216;6.778;2022-09-12T01:12:07;32.13;;;28.23;;
13753;SDS011;6948;51.216;6.778;2022-09-12T01:14:33;36.17;;;27.53;;
13753;SDS011;6948;51.216;6.778;2022-09-12T01:17:02;32.50;;;26.47;;
13753;SDS011;6948;51.216;6.778;2022-09-12T01:25:13;34.63;;;27.10;;
13753;SDS011;6948;51.216;6.778;2022-09-12T01:33:11;32.10;;;26.30;;
13753;SDS011;6948;51.216;6.778;2022-09-12T01:38:30;34.63;;;27.37;;
13753;SDS011;6948;51.216;6.778;2022-09-12T01:41:21;33.07;;;26.03;;
13753;SDS011;6948;51.216;6.778;2022-09-12T01:46:25;30.87;;;26.37;;
13753;SDS011;6948;51.216;6.778;2022-09-12T01:51:35;33.80;;;26.43;;
13753;SDS011;6948;51.216;6.778;2022-09-12T01:54:05;32.77;;;25.53;;
13753;SDS011;6948;51.216;6.778;2022-09-12T01:56:33;31.23;;;25.83;;
13753;SDS011;6948;51.216;6.778;2022-09-12T01:59:02;31.20;;;25.67;;
13753;SDS011;6948;51.216;6.778;2022-09-12T02:01:31;28.80;;;24.77;;
13753;SDS011;6948;51.216;6.778;2022-09-12T02:04:06;30.57;;;25.53;;
13753;SDS011;6948;51.216;6.778;2022-09-12T02:06:35;30.13;;;24.57;;
13753;SDS011;6948;51.216;6.778;2022-09-12T02:09:05;28.17;;;24.30;;
13753;SDS011;6948;51.216;6.778;2022-09-12T02:11:33;30.23;;;25.73;;
13753;SDS011;6948;51.216;6.778;2022-09-12T02:14:03;28.90;;;23.83;;
13753;SDS011;6948;51.216;6.778;2022-09-12T02:16:32;29.97;;;23.23;;
13753;SDS011;6948;51.216;6.778;2022-09-12T02:19:02;26.80;;;22.37;;
13753;SDS011;6948;51.216;6.778;2022-09-12T02:21:30;29.77;;;22.90;;
13753;SDS011;6948;51.216;6.778;2022-09-12T02:23:57;26.97;;;22.30;;
13753;SDS011;6948;51.216;6.778;2022-09-12T02:26:30;30.87;;;22.33;;
13753;SDS011;6948;51.216;6.778;2022-09-12T02:28:57;26.83;;;22.37;;
13753;SDS011;6948;51.216;6.778;2022-09-12T02:34:10;29.70;;;23.87;;
13753;SDS011;6948;51.216;6.778;2022-09-12T02:36:47;31.07;;;24.40;;
13753;SDS011;6948;51.216;6.778;2022-09-12T02:39:15;30.07;;;24.27;;
13753;SDS011;6948;51.216;6.778;2022-09-12T02:41:46;27.03;;;22.27;;
13753;SDS011;6948;51.216;6.778;2022-09-12T02:44:12;29.77;;;23.80;;
13753;SDS011;6948;51.216;6.778;2022-09-12T02:46:40;30.47;;;24.33;;
13753;SDS011;6948;51.216;6.778;2022-09-12T02:49:07;28.83;;;23.27;;
13753;SDS011;6948;51.216;6.778;2022-09-12T02:51:33;29.23;;;23.87;;
13753;SDS011;6948;51.216;6.778;2022-09-12T02:54:00;26.50;;;22.13;;
13753;SDS011;6948;51.216;6.778;2022-09-12T02:56:28;26.33;;;21.60;;
13753;SDS011;6948;51.216;6.778;2022-09-12T02:58:55;28.70;;;22.17;;
13753;SDS011;6948;51.216;6.778;2022-09-12T03:14:58;26.40;;;20.97;;
13753;SDS011;6948;51.216;6.778;2022-09-12T03:17:36;24.37;;;20.07;;
13753;SDS011;6948;51.216;6.778;2022-09-12T03:20:09;24.00;;;20.33;;
13753;SDS011;6948;51.216;6.778;2022-09-12T03:22:42;27.43;;;19.97;;
13753;SDS011;6948;51.216;6.778;2022-09-12T03:25:16;25.57;;;20.47;;
13753;SDS011;6948;51.216;6.778;2022-09-12T03:27:45;22.87;;;19.87;;
13753;SDS011;6948;51.216;6.778;2022-09-12T03:30:14;24.07;;;20.27;;
13753;SDS011;6948;51.216;6.778;2022-09-12T03:32:42;24.07;;;19.67;;
13753;SDS011;6948;51.216;6.778;2022-09-12T03:35:09;23.67;;;20.13;;
13753;SDS011;6948;51.216;6.778;2022-09-12T03:37:35;23.33;;;18.63;;
13753;SDS011;6948;51.216;6.778;2022-09-12T03:40:02;22.60;;;18.20;;
13753;SDS011;6948;51.216;6.778;2022-09-12T03:42:28;21.30;;;19.00;;
13753;SDS011;6948;51.216;6.778;2022-09-12T03:44:54;21.47;;;18.63;;
13753;SDS011;6948;51.216;6.778;2022-09-12T03:47:20;22.37;;;19.07;;
13753;SDS011;6948;51.216;6.778;2022-09-12T03:49:46;22.23;;;18.90;;
13753;SDS011;6948;51.216;6.778;2022-09-12T03:52:12;22.73;;;18.60;;
13753;SDS011;6948;51.216;6.778;2022-09-12T03:54:38;22.50;;;19.00;;
13753;SDS011;6948;51.216;6.778;2022-09-12T03:57:04;24.07;;;18.43;;
13753;SDS011;6948;51.216;6.778;2022-09-12T03:59:30;21.30;;;18.07;;
13753;SDS011;6948;51.216;6.778;2022-09-12T04:01:56;20.90;;;17.23;;
13753;SDS011;6948;51.216;6.778;2022-09-12T04:04:22;25.63;;;18.73;;
13753;SDS011;6948;51.216;6.778;2022-09-12T04:06:48;20.87;;;17.70;;
13753;SDS011;6948;51.216;6.778;2022-09-12T04:09:14;20.90;;;17.80;;
13753;SDS011;6948;51.216;6.778;2022-09-12T04:11:40;20.50;;;17.53;;
13753;SDS011;6948;51.216;6.778;2022-09-12T04:14:06;19.87;;;16.37;;
13753;SDS011;6948;51.216;6.778;2022-09-12T04:16:32;20.30;;;16.37;;
13753;SDS011;6948;51.216;6.778;2022-09-12T04:18:58;19.37;;;16.70;;
13753;SDS011;6948;51.216;6.778;2022-09-12T04:21:24;20.30;;;17.27;;
13753;SDS011;6948;51.216;6.778;2022-09-12T04:23:50;19.33;;;15.90;;
13753;SDS011;6948;51.216;6.778;2022-09-12T04:26:17;22.07;;;16.57;;
13753;SDS011;6948;51.216;6.778;2022-09-12T04:28:44;19.37;;;16.47;;
13753;SDS011;6948;51.216;6.778;2022-09-12T04:31:11;17.63;;;15.87;;
13753;SDS011;6948;51.216;6.778;2022-09-12T04:33:39;21.53;;;16.90;;
13753;SDS011;6948;51.216;6.778;2022-09-12T04:36:06;20.03;;;15.93;;
13753;SDS011;6948;51.216;6.778;2022-09-12T04:38:33;22.00;;;16.03;;
13753;SDS011;6948;51.216;6.778;2022-09-12T04:40:59;19.53;;;16.37;;
13753;SDS011;6948;51.216;6.778;2022-09-12T04:43:26;20.83;;;15.73;;
13753;SDS011;6948;51.216;6.778;2022-09-12T04:45:52;19.10;;;15.77;;
13753;SDS011;6948;51.216;6.778;2022-09-12T04:48:18;19.50;;;16.23;;
13753;SDS011;6948;51.216;6.778;2022-09-12T04:50:44;18.93;;;16.67;;
13753;SDS011;6948;51.216;6.778;2022-09-12T04:53:10;18.03;;;16.13;;
13753;SDS011;6948;51.216;6.778;2022-09-12T04:55:36;20.13;;;16.33;;
13753;SDS011;6948;51.216;6.778;2022-09-12T04:58:02;18.50;;;14.77;;
13753;SDS011;6948;51.216;6.778;2022-09-12T05:00:28;18.70;;;15.70;;
13753;SDS011;6948;51.216;6.778;2022-09-12T05:02:54;18.57;;;15.83;;
13753;SDS011;6948;51.216;6.778;2022-09-12T05:05:20;18.53;;;15.73;;
13753;SDS011;6948;51.216;6.778;2022-09-12T05:07:46;17.33;;;14.97;;
13753;SDS011;6948;51.216;6.778;2022-09-12T05:10:12;17.47;;;15.47;;
13753;SDS011;6948;51.216;6.778;2022-09-12T05:12:38;18.90;;;15.17;;
13753;SDS011;6948;51.216;6.778;2022-09-12T05:15:05;18.20;;;15.90;;
13753;SDS011;6948;51.216;6.778;2022-09-12T05:17:31;19.13;;;14.93;;
13753;SDS011;6948;51.216;6.778;2022-09-12T05:19:57;18.40;;;14.50;;
13753;SDS011;6948;51.216;6.778;2022-09-12T05:22:24;18.03;;;14.97;;
13753;SDS011;6948;51.216;6.778;2022-09-12T05:24:50;17.40;;;15.50;;
13753;SDS011;6948;51.216;6.778;2022-09-12T05:27:16;19.20;;;14.27;;
13753;SDS011;6948;51.216;6.778;2022-09-12T05:29:42;18.47;;;14.70;;
13753;SDS011;6948;51.216;6.778;2022-09-12T05:32:08;18.87;;;14.87;;
13753;SDS011;6948;51.216;6.778;2022-09-12T05:34:36;20.80;;;15.17;;
13753;SDS011;6948;51.216;6.778;2022-09-12T05:37:02;19.80;;;15.07;;
13753;SDS011;6948;51.216;6.778;2022-09-12T05:39:28;18.03;;;14.67;;
13753;SDS011;6948;51.216;6.778;2022-09-12T05:41:54;17.43;;;15.40;;
13753;SDS011;6948;51.216;6.778;2022-09-12T05:44:20;16.47;;;14.30;;
13753;SDS011;6948;51.216;6.778;2022-09-12T05:46:46;18.77;;;14.37;;
13753;SDS011;6948;51.216;6.778;2022-09-12T05:49:15;17.67;;;14.37;;
13753;SDS011;6948;51.216;6.778;2022-09-12T05:51:42;16.30;;;14.13;;
13753;SDS011;6948;51.216;6.778;2022-09-12T05:54:10;17.27;;;14.73;;
13753;SDS011;6948;51.216;6.778;2022-09-12T05:56:38;16.47;;;13.90;;
13753;SDS011;6948;51.216;6.778;2022-09-12T05:59:06;16.67;;;13.57;;
13753;SDS011;6948;51.216;6.778;2022-09-12T06:01:34;16.90;;;13.47;;
13753;SDS011;6948;51.216;6.778;2022-09-12T06:04:00;14.83;;;12.90;;
13753;SDS011;6948;51.216;6.778;2022-09-12T06:06:28;14.63;;;13.00;;
13753;SDS011;6948;51.216;6.778;2022-09-12T06:08:55;17.37;;;13.03;;
13753;SDS011;6948;51.216;6.778;2022-09-12T06:11:23;16.87;;;12.57;;
13753;SDS011;6948;51.216;6.778;2022-09-12T06:13:51;13.33;;;11.93;;
13753;SDS011;6948;51.216;6.778;2022-09-12T06:16:18;14.47;;;12.37;;
13753;SDS011;6948;51.216;6.778;2022-09-12T06:18:46;14.37;;;11.87;;
13753;SDS011;6948;51.216;6.778;2022-09-12T06:21:13;20.63;;;12.23;;
13753;SDS011;6948;51.216;6.778;2022-09-12T06:23:39;14.20;;;12.70;;
13753;SDS011;6948;51.216;6.778;2022-09-12T06:26:06;13.27;;;11.87;;
13753;SDS011;6948;51.216;6.778;2022-09-12T06:28:33;14.50;;;11.53;;
13753;SDS011;6948;51.216;6.778;2022-09-12T06:31:05;12.97;;;11.53;;
13753;SDS011;6948;51.216;6.778;2022-09-12T06:33:32;13.70;;;11.27;;
13753;SDS011;6948;51.216;6.778;2022-09-12T06:36:03;13.07;;;11.57;;
13753;SDS011;6948;51.216;6.778;2022-09-12T06:38:29;15.00;;;11.43;;
13753;SDS011;6948;51.216;6.778;2022-09-12T06:40:56;12.03;;;10.83;;
13753;SDS011;6948;51.216;6.778;2022-09-12T06:43:22;13.57;;;11.73;;
13753;SDS011;6948;51.216;6.778;2022-09-12T06:45:49;13.47;;;11.47;;
13753;SDS011;6948;51.216;6.778;2022-09-12T06:48:15;13.07;;;11.47;;
13753;SDS011;6948;51.216;6.778;2022-09-12T06:50:41;12.17;;;10.87;;
13753;SDS011;6948;51.216;6.778;2022-09-12T06:53:07;14.73;;;11.67;;
13753;SDS011;6948;51.216;6.778;2022-09-12T06:55:33;12.57;;;10.70;;
13753;SDS011;6948;51.216;6.778;2022-09-12T06:57:59;13.00;;;11.17;;
13753;SDS011;6948;51.216;6.778;2022-09-12T07:00:26;18.60;;;13.23;;
13753;SDS011;6948;51.216;6.778;2022-09-12T07:02:53;14.83;;;11.83;;
13753;SDS011;6948;51.216;6.778;2022-09-12T07:05:20;13.60;;;11.77;;
13753;SDS011;6948;51.216;6.778;2022-09-12T07:07:47;14.93;;;12.30;;
13753;SDS011;6948;51.216;6.778;2022-09-12T07:10:13;14.70;;;11.60;;
13753;SDS011;6948;51.216;6.778;2022-09-12T07:12:39;14.30;;;12.03;;
13753;SDS011;6948;51.216;6.778;2022-09-12T07:15:05;13.63;;;12.23;;
13753;SDS011;6948;51.216;6.778;2022-09-12T07:17:31;17.40;;;12.37;;
13753;SDS011;6948;51.216;6.778;2022-09-12T07:19:57;15.53;;;11.97;;
13753;SDS011;6948;51.216;6.778;2022-09-12T07:22:23;14.60;;;11.60;;
13753;SDS011;6948;51.216;6.778;2022-09-12T07:24:49;13.37;;;10.87;;
13753;SDS011;6948;51.216;6.778;2022-09-12T07:27:15;14.57;;;12.30;;
13753;SDS011;6948;51.216;6.778;2022-09-12T07:29:41;14.63;;;12.10;;
13753;SDS011;6948;51.216;6.778;2022-09-12T07:32:08;13.17;;;10.27;;
13753;SDS011;6948;51.216;6.778;2022-09-12T07:34:34;13.70;;;11.93;;
13753;SDS011;6948;51.216;6.778;2022-09-12T07:37:00;13.10;;;11.80;;
13753;SDS011;6948;51.216;6.778;2022-09-12T07:39:26;13.43;;;11.60;;
13753;SDS011;6948;51.216;6.778;2022-09-12T07:41:52;14.33;;;12.03;;
13753;SDS011;6948;51.216;6.778;2022-09-12T07:44:18;13.17;;;11.47;;
13753;SDS011;6948;51.216;6.778;2022-09-12T07:46:46;14.73;;;12.90;;
13753;SDS011;6948;51.216;6.778;2022-09-12T07:49:12;14.10;;;12.60;;
13753;SDS011;6948;51.216;6.778;2022-09-12T07:51:38;15.10;;;12.70;;
13753;SDS011;6948;51.216;6.778;2022-09-12T07:54:06;15.10;;;12.80;;
13753;SDS011;6948;51.216;6.778;2022-09-12T07:56:33;15.60;;;12.73;;
13753;SDS011;6948;51.216;6.778;2022-09-12T07:58:59;13.87;;;12.37;;
13753;SDS011;6948;51.216;6.778;2022-09-12T08:01:25;15.73;;;12.60;;
13753;SDS011;6948;51.216;6.778;2022-09-12T08:03:52;18.40;;;12.37;;
13753;SDS011;6948;51.216;6.778;2022-09-12T08:06:19;15.93;;;12.60;;
13753;SDS011;6948;51.216;6.778;2022-09-12T08:08:45;13.37;;;11.97;;
13753;SDS011;6948;51.216;6.778;2022-09-12T08:11:13;13.90;;;12.37;;
13753;SDS011;6948;51.216;6.778;2022-09-12T08:13:40;18.10;;;12.80;;
13753;SDS011;6948;51.216;6.778;2022-09-12T08:16:08;20.80;;;12.10;;
13753;SDS011;6948;51.216;6.778;2022-09-12T08:18:36;16.67;;;12.63;;
13753;SDS011;6948;51.216;6.778;2022-09-12T08:21:03;17.23;;;11.77;;
13753;SDS011;6948;51.216;6.778;2022-09-12T08:23:30;14.57;;;11.67;;
13753;SDS011;6948;51.216;6.778;2022-09-12T08:25:57;16.40;;;11.53;;
13753;SDS011;6948;51.216;6.778;2022-09-12T08:28:24;14.07;;;11.67;;
13753;SDS011;6948;51.216;6.778;2022-09-12T08:30:51;17.03;;;12.13;;
13753;SDS011;6948;51.216;6.778;2022-09-12T08:33:17;14.60;;;11.97;;
13753;SDS011;6948;51.216;6.778;2022-09-12T08:35:43;15.27;;;11.80;;
13753;SDS011;6948;51.216;6.778;2022-09-12T08:38:09;15.63;;;11.73;;
13753;SDS011;6948;51.216;6.778;2022-09-12T08:40:42;15.77;;;11.30;;
13753;SDS011;6948;51.216;6.778;2022-09-12T08:43:25;13.80;;;10.63;;
13753;SDS011;6948;51.216;6.778;2022-09-12T08:45:57;13.73;;;11.37;;
13753;SDS011;6948;51.216;6.778;2022-09-12T08:48:26;14.40;;;11.00;;
13753;SDS011;6948;51.216;6.778;2022-09-12T08:50:53;16.93;;;11.20;;
13753;SDS011;6948;51.216;6.778;2022-09-12T08:53:20;13.23;;;11.23;;
13753;SDS011;6948;51.216;6.778;2022-09-12T08:55:51;15.33;;;10.37;;
13753;SDS011;6948;51.216;6.778;2022-09-12T08:58:19;12.93;;;10.40;;
13753;SDS011;6948;51.216;6.778;2022-09-12T09:06:13;15.53;;;10.43;;
13753;SDS011;6948;51.216;6.778;2022-09-12T09:11:48;11.83;;;9.40;;
13753;SDS011;6948;51.216;6.778;2022-09-12T09:14:20;10.40;;;9.20;;
13753;SDS011;6948;51.216;6.778;2022-09-12T09:17:09;13.17;;;10.57;;
13753;SDS011;6948;51.216;6.778;2022-09-12T09:19:37;12.60;;;9.93;;
13753;SDS011;6948;51.216;6.778;2022-09-12T09:22:06;11.17;;;9.60;;
13753;SDS011;6948;51.216;6.778;2022-09-12T09:24:40;13.07;;;9.57;;
13753;SDS011;6948;51.216;6.778;2022-09-12T09:27:10;10.13;;;9.03;;
13753;SDS011;6948;51.216;6.778;2022-09-12T09:29:40;13.93;;;10.13;;
13753;SDS011;6948;51.216;6.778;2022-09-12T09:32:11;10.67;;;9.57;;
13753;SDS011;6948;51.216;6.778;2022-09-12T09:34:39;10.93;;;9.10;;
13753;SDS011;6948;51.216;6.778;2022-09-12T09:37:08;9.93;;;8.93;;
13753;SDS011;6948;51.216;6.778;2022-09-12T09:39:49;11.87;;;9.47;;
13753;SDS011;6948;51.216;6.778;2022-09-12T09:44:51;11.30;;;9.90;;
13753;SDS011;6948;51.216;6.778;2022-09-12T09:47:18;12.70;;;9.07;;
13753;SDS011;6948;51.216;6.778;2022-09-12T09:49:44;10.63;;;8.87;;
13753;SDS011;6948;51.216;6.778;2022-09-12T09:52:13;14.43;;;9.87;;
13753;SDS011;6948;51.216;6.778;2022-09-12T09:54:40;10.70;;;8.33;;
13753;SDS011;6948;51.216;6.778;2022-09-12T09:59:53;12.80;;;8.80;;
13753;SDS011;6948;51.216;6.778;2022-09-12T10:02:20;9.43;;;8.43;;
13753;SDS011;6948;51.216;6.778;2022-09-12T10:04:55;10.53;;;9.43;;
13753;SDS011;6948;51.216;6.778;2022-09-12T10:07:22;12.53;;;8.87;;
13753;SDS011;6948;51.216;6.778;2022-09-12T10:13:05;12.47;;;9.57;;
13753;SDS011;6948;51.216;6.778;2022-09-12T10:15:31;11.47;;;9.13;;
13753;SDS011;6948;51.216;6.778;2022-09-12T10:17:58;13.17;;;9.63;;
13753;SDS011;6948;51.216;6.778;2022-09-12T10:20:41;10.60;;;9.33;;
13753;SDS011;6948;51.216;6.778;2022-09-12T10:26:02;9.67;;;8.10;;
13753;SDS011;6948;51.216;6.778;2022-09-12T10:28:31;7.97;;;7.17;;
13753;SDS011;6948;51.216;6.778;2022-09-12T10:30:58;9.73;;;7.33;;
13753;SDS011;6948;51.216;6.778;2022-09-12T10:33:26;8.10;;;7.07;;
13753;SDS011;6948;51.216;6.778;2022-09-12T10:35:53;8.80;;;6.60;;
13753;SDS011;6948;51.216;6.778;2022-09-12T10:38:23;7.30;;;6.20;;
13753;SDS011;6948;51.216;6.778;2022-09-12T10:40:54;7.57;;;5.93;;
13753;SDS011;6948;51.216;6.778;2022-09-12T10:43:26;7.40;;;6.07;;
13753;SDS011;6948;51.216;6.778;2022-09-12T10:45:56;8.67;;;7.30;;
13753;SDS011;6948;51.216;6.778;2022-09-12T10:48:26;7.57;;;6.23;;
13753;SDS011;6948;51.216;6.778;2022-09-12T10:50:53;7.50;;;5.90;;
13753;SDS011;6948;51.216;6.778;2022-09-12T10:53:21;7.37;;;5.50;;
13753;SDS011;6948;51.216;6.778;2022-09-12T11:04:04;7.37;;;4.50;;
13753;SDS011;6948;51.216;6.778;2022-09-12T11:06:38;5.60;;;4.17;;
13753;SDS011;6948;51.216;6.778;2022-09-12T11:09:09;5.17;;;3.63;;
13753;SDS011;6948;51.216;6.778;2022-09-12T11:11:44;5.03;;;3.63;;
13753;SDS011;6948;51.216;6.778;2022-09-12T11:17:04;4.00;;;3.40;;
13753;SDS011;6948;51.216;6.778;2022-09-12T11:25:12;4.57;;;3.77;;
13753;SDS011;6948;51.216;6.778;2022-09-12T11:30:26;3.67;;;2.90;;
13753;SDS011;6948;51.216;6.778;2022-09-12T11:32:57;3.93;;;3.20;;
13753;SDS011;6948;51.216;6.778;2022-09-12T11:35:31;5.70;;;3.30;;
13753;SDS011;6948;51.216;6.778;2022-09-12T11:40:37;4.47;;;3.07;;
13753;SDS011;6948;51.216;6.778;2022-09-12T11:43:09;3.50;;;3.20;;
13753;SDS011;6948;51.216;6.778;2022-09-12T11:45:42;3.37;;;3.07;;
13753;SDS011;6948;51.216;6.778;2022-09-12T11:48:11;4.07;;;3.13;;
13753;SDS011;6948;51.216;6.778;2022-09-12T11:50:39;3.73;;;3.40;;
13753;SDS011;6948;51.216;6.778;2022-09-12T11:53:22;3.63;;;3.00;;
13753;SDS011;6948;51.216;6.778;2022-09-12T11:55:53;5.40;;;3.10;;
13753;SDS011;6948;51.216;6.778;2022-09-12T11:58:21;6.00;;;3.00;;
13753;SDS011;6948;51.216;6.778;2022-09-12T12:00:49;3.10;;;2.80;;
13753;SDS011;6948;51.216;6.778;2022-09-12T12:03:27;3.57;;;2.67;;
13753;SDS011;6948;51.216;6.778;2022-09-12T12:05:59;4.37;;;3.00;;
13753;SDS011;6948;51.216;6.778;2022-09-12T12:08:28;3.43;;;3.13;;
13753;SDS011;6948;51.216;6.778;2022-09-12T12:10:58;4.40;;;3.10;;
13753;SDS011;6948;51.216;6.778;2022-09-12T12:13:25;4.07;;;2.90;;
13753;SDS011;6948;51.216;6.778;2022-09-12T12:15:54;3.93;;;3.40;;
13753;SDS011;6948;51.216;6.778;2022-09-12T12:18:23;3.53;;;2.90;;
13753;SDS011;6948;51.216;6.778;2022-09-12T12:20:50;3.43;;;3.13;;
13753;SDS011;6948;51.216;6.778;2022-09-12T12:23:33;3.70;;;2.73;;
13753;SDS011;6948;51.216;6.778;2022-09-12T12:26:01;4.80;;;2.93;;
13753;SDS011;6948;51.216;6.778;2022-09-12T12:31:21;3.30;;;3.00;;
13753;SDS011;6948;51.216;6.778;2022-09-12T12:36:33;3.97;;;2.90;;
13753;SDS011;6948;51.216;6.778;2022-09-12T12:39:01;3.30;;;2.93;;
13753;SDS011;6948;51.216;6.778;2022-09-12T12:41:45;3.23;;;2.70;;
13753;SDS011;6948;51.216;6.778;2022-09-12T12:49:48;4.87;;;2.80;;
13753;SDS011;6948;51.216;6.778;2022-09-12T12:52:16;3.70;;;2.73;;
13753;SDS011;6948;51.216;6.778;2022-09-12T12:59:59;3.87;;;2.53;;
13753;SDS011;6948;51.216;6.778;2022-09-12T13:02:28;5.00;;;2.60;;
13753;SDS011;6948;51.216;6.778;2022-09-12T13:04:56;2.70;;;2.50;;
13753;SDS011;6948;51.216;6.778;2022-09-12T13:07:26;3.83;;;3.10;;
13753;SDS011;6948;51.216;6.778;2022-09-12T13:09:52;2.80;;;2.20;;
13753;SDS011;6948;51.216;6.778;2022-09-12T13:12:28;2.53;;;2.30;;
13753;SDS011;6948;51.216;6.778;2022-09-12T13:14:57;3.07;;;2.20;;
13753;SDS011;6948;51.216;6.778;2022-09-12T13:17:25;2.17;;;1.97;;
13753;SDS011;6948;51.216;6.778;2022-09-12T13:19:53;2.50;;;2.30;;
13753;SDS011;6948;51.216;6.778;2022-09-12T13:22:36;3.90;;;2.45;;
13753;SDS011;6948;51.216;6.778;2022-09-12T13:25:15;3.13;;;2.42;;
13753;SDS011;6948;51.216;6.778;2022-09-12T13:27:54;2.47;;;2.22;;
13753;SDS011;6948;51.216;6.778;2022-09-12T13:30:21;2.67;;;2.07;;
13753;SDS011;6948;51.216;6.778;2022-09-12T13:32:47;2.85;;;2.08;;
13753;SDS011;6948;51.216;6.778;2022-09-12T13:35:45;2.75;;;2.38;;
13753;SDS011;6948;51.216;6.778;2022-09-12T13:38:03;2.58;;;2.33;;
13753;SDS011;6948;51.216;6.778;2022-09-12T13:40:38;3.83;;;2.60;;
13753;SDS011;6948;51.216;6.778;2022-09-12T13:45:45;2.90;;;2.30;;
13753;SDS011;6948;51.216;6.778;2022-09-12T13:48:13;2.78;;;2.22;;
13753;SDS011;6948;51.216;6.778;2022-09-12T13:50:48;2.70;;;2.30;;
13753;SDS011;6948;51.216;6.778;2022-09-12T13:53:16;4.00;;;2.40;;
13753;SDS011;6948;51.216;6.778;2022-09-12T13:55:44;5.00;;;2.30;;
13753;SDS011;6948;51.216;6.778;2022-09-12T13:58:15;2.38;;;2.17;;
13753;SDS011;6948;51.216;6.778;2022-09-12T14:00:41;3.65;;;2.45;;
13753;SDS011;6948;51.216;6.778;2022-09-12T14:03:26;5.07;;;2.70;;
13753;SDS011;6948;51.216;6.778;2022-09-12T14:06:12;3.53;;;2.40;;
13753;SDS011;6948;51.216;6.778;2022-09-12T14:08:40;3.65;;;2.75;;
13753;SDS011;6948;51.216;6.778;2022-09-12T14:11:08;3.75;;;2.90;;
13753;SDS011;6948;51.216;6.778;2022-09-12T14:13:35;3.78;;;2.50;;
13753;SDS011;6948;51.216;6.778;2022-09-12T14:16:02;3.25;;;2.63;;
13753;SDS011;6948;51.216;6.778;2022-09-12T14:18:32;4.90;;;2.60;;
13753;SDS011;6948;51.216;6.778;2022-09-12T14:21:04;2.42;;;2.20;;
13753;SDS011;6948;51.216;6.778;2022-09-12T14:23:34;3.05;;;2.60;;
13753;SDS011;6948;51.216;6.778;2022-09-12T14:26:02;2.95;;;2.63;;
13753;SDS011;6948;51.216;6.778;2022-09-12T14:28:33;3.17;;;2.17;;
13753;SDS011;6948;51.216;6.778;2022-09-12T14:31:03;3.40;;;2.35;;
13753;SDS011;6948;51.216;6.778;2022-09-12T14:33:31;3.25;;;2.58;;
13753;SDS011;6948;51.216;6.778;2022-09-12T14:36:06;2.90;;;2.60;;
13753;SDS011;6948;51.216;6.778;2022-09-12T14:38:34;3.40;;;2.40;;
13753;SDS011;6948;51.216;6.778;2022-09-12T14:41:02;2.90;;;2.40;;
13753;SDS011;6948;51.216;6.778;2022-09-12T14:43:29;4.22;;;2.75;;
13753;SDS011;6948;51.216;6.778;2022-09-12T14:46:00;3.85;;;2.55;;
13753;SDS011;6948;51.216;6.778;2022-09-12T14:48:27;3.67;;;2.75;;
13753;SDS011;6948;51.216;6.778;2022-09-12T14:50:55;2.50;;;2.30;;
13753;SDS011;6948;51.216;6.778;2022-09-12T14:53:23;3.90;;;2.72;;
13753;SDS011;6948;51.216;6.778;2022-09-12T14:55:51;3.35;;;2.70;;
13753;SDS011;6948;51.216;6.778;2022-09-12T15:08:58;4.38;;;2.60;;
13753;SDS011;6948;51.216;6.778;2022-09-12T15:11:24;3.25;;;2.60;;
13753;SDS011;6948;51.216;6.778;2022-09-12T15:13:51;4.05;;;2.70;;
13753;SDS011;6948;51.216;6.778;2022-09-12T15:16:17;3.25;;;2.70;;
13753;SDS011;6948;51.216;6.778;2022-09-12T15:18:43;2.80;;;2.60;;
13753;SDS011;6948;51.216;6.778;2022-09-12T15:21:11;3.10;;;2.80;;
13753;SDS011;6948;51.216;6.778;2022-09-12T15:23:39;5.35;;;2.50;;
13753;SDS011;6948;51.216;6.778;2022-09-12T15:26:08;2.95;;;2.60;;
13753;SDS011;6948;51.216;6.778;2022-09-12T15:28:34;3.95;;;2.88;;
13753;SDS011;6948;51.216;6.778;2022-09-12T15:33:46;5.05;;;3.00;;
13753;SDS011;6948;51.216;6.778;2022-09-12T15:36:14;5.10;;;2.83;;
13753;SDS011;6948;51.216;6.778;2022-09-12T15:38:40;3.33;;;2.80;;
13753;SDS011;6948;51.216;6.778;2022-09-12T15:41:09;4.13;;;2.80;;
13753;SDS011;6948;51.216;6.778;2022-09-12T15:43:35;3.25;;;2.72;;
13753;SDS011;6948;51.216;6.778;2022-09-12T15:46:01;2.78;;;2.53;;
13753;SDS011;6948;51.216;6.778;2022-09-12T15:48:30;3.05;;;2.67;;
13753;SDS011;6948;51.216;6.778;2022-09-12T15:50:56;5.28;;;3.03;;
13753;SDS011;6948;51.216;6.778;2022-09-12T15:53:25;3.03;;;2.72;;
13753;SDS011;6948;51.216;6.778;2022-09-12T15:55:52;3.20;;;2.75;;
13753;SDS011;6948;51.216;6.778;2022-09-12T15:58:18;3.03;;;2.72;;
13753;SDS011;6948;51.216;6.778;2022-09-12T16:00:44;3.10;;;2.80;;
13753;SDS011;6948;51.216;6.778;2022-09-12T16:03:16;2.85;;;2.65;;
13753;SDS011;6948;51.216;6.778;2022-09-12T16:05:43;4.03;;;2.60;;
13753;SDS011;6948;51.216;6.778;2022-09-12T16:08:09;3.00;;;2.40;;
13753;SDS011;6948;51.216;6.778;2022-09-12T16:10:35;5.30;;;2.97;;
13753;SDS011;6948;51.216;6.778;2022-09-12T16:13:01;3.85;;;2.83;;
13753;SDS011;6948;51.216;6.778;2022-09-12T16:15:28;3.10;;;2.47;;
13753;SDS011;6948;51.216;6.778;2022-09-12T16:17:54;4.03;;;2.75;;
13753;SDS011;6948;51.216;6.778;2022-09-12T16:20:20;2.97;;;2.30;;
13753;SDS011;6948;51.216;6.778;2022-09-12T16:22:47;3.13;;;2.60;;
13753;SDS011;6948;51.216;6.778;2022-09-12T16:25:13;3.78;;;2.88;;
13753;SDS011;6948;51.216;6.778;2022-09-12T16:27:39;4.90;;;2.75;;
13753;SDS011;6948;51.216;6.778;2022-09-12T16:30:05;4.18;;;2.90;;
13753;SDS011;6948;51.216;6.778;2022-09-12T16:32:32;2.60;;;2.35;;
13753;SDS011;6948;51.216;6.778;2022-09-12T16:34:58;4.88;;;2.80;;
13753;SDS011;6948;51.216;6.778;2022-09-12T16:37:24;3.45;;;2.55;;
13753;SDS011;6948;51.216;6.778;2022-09-12T16:39:50;3.35;;;2.65;;
13753;SDS011;6948;51.216;6.778;2022-09-12T16:42:16;3.83;;;2.80;;